Airfield :
LOGIN :

Register | Disclaimer

   EN    FR    IT 

 










Legend :    VFR   Marginal VFR   IFR   Intensive IFR   Very Intensive IFR
Visi :
Ceiling :
>= 8 km
>= 3000ft
5 to 8 km
1000 to 3000 ft
1500m to 5 km
500 to 1000 ft
800 to 1500m
200 to 500 ft
< 800m
< 200 ft
Symbols :   Thunderstorms  Fog  Heavy snow  Heavy precipitations  Wind > 20 kt
SIGMETs :     Misc.  Thunderstorms  Icing  Turbulence  Mountain Waves  Volcanic Ashes






- Airport Elevation : 220 ft
- IATA code : CWL


EGFF - Cardiff Rhoose

CURRENT METAR :
  • 292120Z AUTO 24009KT 9999 OVC035 08/06 Q1010

EXPIRED METARs :
  • 292050Z AUTO 23009KT 9999 OVC034 08/06 Q1011
  • 292020Z AUTO 24008KT 9999 OVC035 08/06 Q1011
  • 291950Z AUTO 24008KT 9999 BKN039 OVC047 08/06 Q1011
  • 291920Z AUTO 25010KT 9999 BKN043 08/06 Q1011

TAF TAF EGFF
Valid from the 29 at 18:00 until the 30 at 18:00 UTC


291702Z 2918/3018 24010KT 9999 SCT025
BECMG 3002/3005 13008KT 6000 BKN005
BECMG 3005/3008 2000 BR BKN002
TEMPO 3008/3017 0300 -DZ FG BKN000
BECMG 3010/3013 25010KT
TEMPO 3014/3018 27015G25KT
ATIS : +44 1446 729 319



MET'MAP, your aeronautical weather chart ! - Copyright ORBIFLY December 2007 - Disclaimer

ORBIFLY MET'MAP TEAM :

Programming & Development : Alexandra Zaïnal
Concept & original design : Baudouin d'Aumeries
Assistance for programming : Marc-Olivier Méhu
Technical & hardware support : Manuel Goepfert

Contact : metmap@orbifly.com




SOURCES & CREDITS :

   NOAA